Time;durP1;ratioP1;P1;durP2;ratioP2;P2;SDS_P1;SDS_P2;PMS_P1;PMS_P2;Temp;Humidity;BMP_temperature;BMP_pressure;BME280_temperature;BME280_humidity;BME280_pressure;Samples;Min_cycle;Max_cycle;Signal;HPM_P1;HPM_P2
2023/04/05 00:00:53;;;;;;;9.00;5.07;;;;;;;1.28;100.00;102650.63;4964305;28;20410;-78
2023/04/05 00:03:23;;;;;;;9.38;5.18;;;;;;;1.24;100.00;102643.44;4952121;28;20054;-78
2023/04/05 00:05:53;;;;;;;9.85;5.93;;;;;;;1.20;100.00;102650.09;4969307;28;20047;-78
2023/04/05 00:08:25;;;;;;;13.85;6.80;;;;;;;1.17;100.00;102647.28;4921302;28;20051;-80
2023/04/05 00:10:55;;;;;;;8.55;5.55;;;;;;;1.12;100.00;102644.38;4957898;28;20046;-78
2023/04/05 00:13:23;;;;;;;10.10;5.80;;;;;;;1.10;100.00;102640.78;4970353;28;20054;-79
2023/04/05 00:15:50;;;;;;;9.40;4.93;;;;;;;1.07;100.00;102645.75;4916425;28;20051;-79
2023/04/05 00:18:23;;;;;;;9.68;5.63;;;;;;;1.04;100.00;102642.94;4983584;28;20043;-80
2023/04/05 00:20:52;;;;;;;7.85;5.35;;;;;;;1.02;100.00;102641.94;4956010;28;20498;-77
2023/04/05 00:23:20;;;;;;;8.65;5.28;;;;;;;1.00;100.00;102638.31;4934743;28;20038;-78
2023/04/05 00:25:47;;;;;;;7.25;4.78;;;;;;;0.97;100.00;102639.00;4954384;28;20051;-80
2023/04/05 00:28:15;;;;;;;12.23;4.65;;;;;;;0.95;100.00;102639.69;4969457;28;20039;-80
2023/04/05 00:30:42;;;;;;;6.78;4.95;;;;;;;0.92;100.00;102635.16;4960515;28;20054;-80
2023/04/05 00:33:11;;;;;;;7.45;4.95;;;;;;;0.88;100.00;102630.56;4970280;28;20051;-78
2023/04/05 00:35:38;;;;;;;9.73;5.38;;;;;;;0.86;100.00;102631.25;4962512;28;20047;-78
2023/04/05 00:38:07;;;;;;;6.88;4.72;;;;;;;0.84;100.00;102640.63;4933889;28;20461;-79
2023/04/05 00:40:35;;;;;;;7.18;4.78;;;;;;;0.80;100.00;102631.72;4939977;28;20498;-79
2023/04/05 00:43:02;;;;;;;9.85;5.63;;;;;;;0.78;100.00;102628.13;4955589;28;20069;-80
2023/04/05 00:45:31;;;;;;;8.63;5.53;;;;;;;0.76;100.00;102632.28;4963509;28;20051;-78
2023/04/05 00:47:59;;;;;;;9.30;5.28;;;;;;;0.74;100.00;102627.00;4970535;28;20524;-79
2023/04/05 00:50:30;;;;;;;7.35;5.25;;;;;;;0.71;100.00;102624.16;4958534;28;20576;-79
2023/04/05 00:52:58;;;;;;;9.65;5.25;;;;;;;0.69;100.00;102625.75;4916476;28;20047;-79
2023/04/05 00:55:26;;;;;;;7.78;5.18;;;;;;;0.67;100.00;102626.44;4965641;28;20560;-78
2023/04/05 00:57:55;;;;;;;9.68;5.70;;;;;;;0.64;100.00;102626.22;4955517;28;20057;-78
2023/04/05 01:00:23;;;;;;;7.30;4.47;;;;;;;0.60;100.00;102622.50;4966319;28;20059;-79
2023/04/05 01:03:02;;;;;;;7.65;5.13;;;;;;;0.57;100.00;102625.78;4957765;28;20050;-80
2023/04/05 01:05:42;;;;;;;6.22;4.68;;;;;;;0.56;100.00;102625.66;4967409;28;20528;-81
2023/04/05 01:08:27;;;;;;;8.77;5.78;;;;;;;0.53;100.00;102623.75;4934910;28;20054;-81
2023/04/05 01:10:59;;;;;;;10.43;5.30;;;;;;;0.52;100.00;102626.22;4949882;28;20047;-80
2023/04/05 01:13:29;;;;;;;9.23;4.95;;;;;;;0.51;100.00;102616.63;4957010;28;20134;-81
2023/04/05 01:15:56;;;;;;;8.90;5.45;;;;;;;0.49;100.00;102618.22;4958870;28;20059;-81
2023/04/05 01:18:26;;;;;;;10.43;5.20;;;;;;;0.49;100.00;102623.41;4939379;28;20049;-82
2023/04/05 01:21:09;;;;;;;7.72;5.18;;;;;;;0.48;100.00;102612.13;4953316;28;20054;-81
2023/04/05 01:23:46;;;;;;;7.55;5.43;;;;;;;0.45;100.00;102604.13;4956417;28;20042;-79
2023/04/05 01:26:36;;;;;;;9.73;5.75;;;;;;;0.43;100.00;102604.81;4966094;28;20078;-82
2023/04/05 01:30:15;;;;;;;8.68;5.18;;;;;;;0.41;100.00;102599.50;4933380;28;20055;-82
2023/04/05 01:32:59;;;;;;;7.95;5.28;;;;;;;0.38;100.00;102605.38;4895094;29;20052;-81
2023/04/05 01:35:49;;;;;;;7.10;5.57;;;;;;;0.37;100.00;102593.19;4934578;29;20227;-81
2023/04/05 01:38:20;;;;;;;6.23;3.90;;;;;;;0.37;100.00;102590.59;4959891;28;20055;-81
2023/04/05 01:40:48;;;;;;;7.65;5.63;;;;;;;0.36;100.00;102591.41;4938671;28;20497;-81
2023/04/05 01:43:17;;;;;;;10.48;5.25;;;;;;;0.36;100.00;102587.91;4969841;28;20059;-81
2023/04/05 01:45:45;;;;;;;7.45;5.05;;;;;;;0.35;100.00;102580.91;4972040;28;20054;-81
2023/04/05 01:48:13;;;;;;;10.48;5.05;;;;;;;0.33;100.00;102580.81;4973462;28;20058;-82
2023/04/05 01:50:41;;;;;;;8.02;5.20;;;;;;;0.33;100.00;102582.50;4955716;28;20039;-81
2023/04/05 01:53:09;;;;;;;7.20;5.18;;;;;;;0.31;100.00;102579.78;4973072;28;20541;-81
2023/04/05 01:55:36;;;;;;;7.65;5.07;;;;;;;0.32;100.00;102575.50;4930582;28;20069;-81
2023/04/05 01:58:04;;;;;;;8.07;5.35;;;;;;;0.32;100.00;102583.28;4950225;28;20828;-81
2023/04/05 02:00:31;;;;;;;7.40;4.95;;;;;;;0.30;100.00;102578.00;4970517;28;20429;-81
2023/04/05 02:02:59;;;;;;;7.63;5.15;;;;;;;0.30;100.00;102584.84;4955003;28;20053;-82
2023/04/05 02:05:26;;;;;;;5.95;4.70;;;;;;;0.28;100.00;102582.16;4972694;28;20050;-81
2023/04/05 02:07:53;;;;;;;12.68;5.38;;;;;;;0.27;100.00;102579.47;4954803;28;20058;-81
2023/04/05 02:10:22;;;;;;;7.85;5.93;;;;;;;0.27;100.00;102576.88;4940447;28;20505;-82
2023/04/05 02:12:49;;;;;;;7.00;5.43;;;;;;;0.25;100.00;102578.47;4931774;28;20394;-81
2023/04/05 02:15:17;;;;;;;6.13;5.25;;;;;;;0.24;100.00;102579.22;4956749;28;20055;-81
2023/04/05 02:17:45;;;;;;;8.20;5.30;;;;;;;0.23;100.00;102573.16;4955321;28;20425;-81
2023/04/05 02:20:13;;;;;;;6.28;4.95;;;;;;;0.22;100.00;102579.13;4951432;28;20058;-81
2023/04/05 02:22:44;;;;;;;6.20;4.60;;;;;;;0.24;100.00;102579.22;4934940;28;20411;-80
2023/04/05 02:25:12;;;;;;;7.05;5.72;;;;;;;0.25;100.00;102571.56;4971537;28;20061;-80
2023/04/05 02:27:40;;;;;;;7.50;5.65;;;;;;;0.30;100.00;102582.25;4932619;28;20251;-82
2023/04/05 02:30:08;;;;;;;9.10;5.90;;;;;;;0.30;100.00;102569.31;4936796;28;20058;-82
2023/04/05 02:32:36;;;;;;;10.10;5.75;;;;;;;0.31;100.00;102573.72;4937275;28;20059;-79
2023/04/05 02:35:04;;;;;;;7.13;5.60;;;;;;;0.30;100.00;102571.91;4969300;28;20058;-79
2023/04/05 02:37:31;;;;;;;9.77;6.15;;;;;;;0.29;100.00;102571.00;4969915;28;20050;-81
2023/04/05 02:40:00;;;;;;;6.55;5.38;;;;;;;0.29;100.00;102568.41;4954624;28;20054;-81
2023/04/05 02:42:28;;;;;;;9.30;5.95;;;;;;;0.29;100.00;102570.09;4930730;28;20055;-81
2023/04/05 02:44:55;;;;;;;7.20;5.57;;;;;;;0.29;100.00;102570.09;4961168;28;20042;-81
2023/04/05 02:47:23;;;;;;;6.95;5.43;;;;;;;0.27;100.00;102563.91;4923595;28;20051;-81
2023/04/05 02:49:54;;;;;;;6.10;5.30;;;;;;;0.25;100.00;102563.78;4938276;28;20051;-81
2023/04/05 02:52:24;;;;;;;8.93;5.97;;;;;;;0.23;100.00;102565.38;4971335;28;20046;-81
2023/04/05 02:54:52;;;;;;;9.00;6.38;;;;;;;0.23;100.00;102555.00;4922635;28;20043;-81
2023/04/05 02:57:25;;;;;;;8.05;5.65;;;;;;;0.23;100.00;102567.03;4968165;28;20059;-81
2023/04/05 03:00:03;;;;;;;11.38;6.50;;;;;;;0.20;100.00;102565.16;4943169;28;20047;-81
2023/04/05 03:02:32;;;;;;;9.35;6.15;;;;;;;0.19;100.00;102560.78;4970412;28;20043;-81
2023/04/05 03:05:02;;;;;;;9.80;6.72;;;;;;;0.16;100.00;102557.94;4952466;28;20473;-81
2023/04/05 03:07:32;;;;;;;13.85;7.03;;;;;;;0.16;100.00;102557.94;4954312;28;20528;-81
2023/04/05 03:10:03;;;;;;;10.73;7.38;;;;;;;0.14;100.00;102554.34;4937858;28;20046;-81
2023/04/05 03:12:33;;;;;;;10.10;6.75;;;;;;;0.12;100.00;102555.91;4954796;28;20054;-81
2023/04/05 03:15:01;;;;;;;10.77;7.07;;;;;;;0.12;100.00;102553.31;4915675;28;20271;-81
2023/04/05 03:17:36;;;;;;;9.38;6.45;;;;;;;0.11;100.00;102556.69;4969799;28;20496;-82
2023/04/05 03:20:06;;;;;;;9.40;7.78;;;;;;;0.09;100.00;102556.56;4952057;28;20056;-81
2023/04/05 03:22:33;;;;;;;13.70;7.55;;;;;;;0.08;100.00;102553.91;4953752;28;20051;-81
2023/04/05 03:25:02;;;;;;;14.50;7.90;;;;;;;0.06;100.00;102551.19;4953380;28;20055;-81
2023/04/05 03:27:31;;;;;;;13.57;7.60;;;;;;;0.05;100.00;102554.56;4969746;28;20047;-81
2023/04/05 03:30:03;;;;;;;13.68;7.93;;;;;;;0.05;100.00;102548.47;4912283;28;20078;-81
2023/04/05 03:32:35;;;;;;;17.75;8.93;;;;;;;0.02;100.00;102543.97;4926873;28;20417;-81
2023/04/05 03:35:18;;;;;;;13.25;8.32;;;;;;;0.01;100.00;102544.75;4954867;28;20497;-81
2023/04/05 03:37:46;;;;;;;10.30;7.72;;;;;;;0.01;100.00;102542.16;4965484;28;20055;-81
2023/04/05 03:40:14;;;;;;;11.85;7.82;;;;;;;0.01;100.00;102547.34;4968508;28;20054;-80
2023/04/05 03:42:43;;;;;;;14.90;8.20;;;;;;;0.01;100.00;102546.47;4964889;28;20055;-81
2023/04/05 03:45:11;;;;;;;11.55;8.27;;;;;;;-0.01;100.00;102536.84;4914959;28;20066;-80
2023/04/05 03:47:38;;;;;;;13.82;8.23;;;;;;;-0.02;100.00;102541.94;4969448;28;20043;-81
2023/04/05 03:50:07;;;;;;;15.65;8.52;;;;;;;-0.03;100.00;102535.84;4971654;28;20134;-80
2023/04/05 03:52:35;;;;;;;17.30;9.38;;;;;;;-0.04;100.00;102536.66;4956719;28;20051;-81
2023/04/05 03:55:05;;;;;;;20.35;10.88;;;;;;;-0.06;100.00;102530.47;4940549;28;20055;-80
2023/04/05 03:57:37;;;;;;;16.98;10.55;;;;;;;-0.05;100.00;102532.25;4971215;28;20047;-82
2023/04/05 04:00:18;;;;;;;16.10;9.32;;;;;;;-0.06;100.00;102527.88;4939300;28;20051;-80
2023/04/05 04:03:01;;;;;;;18.35;10.52;;;;;;;-0.07;100.00;102532.94;4949886;28;20109;-80
2023/04/05 04:05:30;;;;;;;17.48;9.85;;;;;;;-0.08;100.00;102529.41;4969544;28;20058;-80
2023/04/05 04:07:58;;;;;;;16.65;10.02;;;;;;;-0.10;100.00;102531.00;4945293;28;20653;-79
2023/04/05 04:10:25;;;;;;;16.45;10.32;;;;;;;-0.12;100.00;102522.22;4934201;28;20055;-80
2023/04/05 04:12:57;;;;;;;16.70;9.70;;;;;;;-0.12;100.00;102526.50;4978730;28;20057;-80
2023/04/05 04:15:28;;;;;;;16.23;10.15;;;;;;;-0.12;100.00;102521.31;4918729;28;20053;-79
2023/04/05 04:18:16;;;;;;;15.25;8.88;;;;;;;-0.13;100.00;102517.84;4941162;28;20063;-81
2023/04/05 04:21:17;;;;;;;12.77;9.45;;;;;;;-0.16;100.00;102520.19;4919855;28;20532;-82
2023/04/05 04:23:56;;;;;;;15.05;9.80;;;;;;;-0.18;100.00;102526.97;4931962;28;20046;-81
2023/04/05 04:26:53;;;;;;;18.08;8.95;;;;;;;-0.20;100.00;102520.75;4936900;28;20054;-81
2023/04/05 04:29:45;;;;;;;14.13;9.40;;;;;;;-0.23;100.00;102526.63;4943392;28;20042;-81
2023/04/05 04:32:50;;;;;;;14.80;9.48;;;;;;;-0.24;100.00;102527.41;4926044;28;20047;-80
2023/04/05 04:35:45;;;;;;;12.55;8.57;;;;;;;-0.26;100.00;102518.63;4956287;28;20061;-80
2023/04/05 04:38:33;;;;;;;14.65;8.60;;;;;;;-0.26;100.00;102525.50;4972082;28;20449;-80
2023/04/05 04:41:13;;;;;;;14.85;9.63;;;;;;;-0.27;100.00;102515.91;4968294;28;20073;-80
2023/04/05 04:44:02;;;;;;;14.27;9.70;;;;;;;-0.29;100.00;102513.19;4943619;28;20054;-80
2023/04/05 04:46:53;;;;;;;11.65;8.45;;;;;;;-0.29;100.00;102520.97;4955581;28;20054;-80
2023/04/05 04:49:56;;;;;;;19.98;11.70;;;;;;;-0.30;100.00;102516.59;4910158;29;20631;-79
2023/04/05 04:52:23;;;;;;;20.77;13.30;;;;;;;-0.30;100.00;102521.78;4921824;28;20422;-80
2023/04/05 04:54:51;;;;;;;19.92;13.52;;;;;;;-0.30;100.00;102514.00;4938649;28;20046;-81
2023/04/05 04:57:18;;;;;;;23.70;15.77;;;;;;;-0.30;100.00;102519.19;4957958;28;20058;-82
2023/04/05 04:59:45;;;;;;;24.23;16.52;;;;;;;-0.29;100.00;102509.72;4936328;28;20063;-81
2023/04/05 05:02:13;;;;;;;26.65;17.20;;;;;;;-0.29;100.00;102520.97;4968046;28;20059;-81
2023/04/05 05:04:41;;;;;;;28.58;18.50;;;;;;;-0.24;100.00;102529.09;4922233;28;20073;-81
2023/04/05 05:07:09;;;;;;;28.80;17.05;;;;;;;-0.20;100.00;102525.94;4951856;28;20051;-82
2023/04/05 05:09:37;;;;;;;34.40;15.88;;;;;;;-0.15;100.00;102522.00;4928709;28;20505;-80
2023/04/05 05:12:05;;;;;;;27.30;16.83;;;;;;;-0.09;100.00;102522.44;4957583;28;20055;-79
2023/04/05 05:14:35;;;;;;;23.92;15.18;;;;;;;-0.06;100.00;102525.28;4967498;28;20058;-82
2023/04/05 05:17:05;;;;;;;27.35;15.18;;;;;;;-0.02;100.00;102524.72;4953377;28;20062;-83
2023/04/05 05:19:33;;;;;;;24.67;14.85;;;;;;;0.04;100.00;102523.34;4886946;29;20058;-82
2023/04/05 05:22:00;;;;;;;25.00;15.50;;;;;;;0.09;100.00;102529.75;4925434;28;20059;-83
2023/04/05 05:24:28;;;;;;;23.23;14.35;;;;;;;0.12;100.00;102524.81;4940748;28;20054;-81
2023/04/05 05:26:55;;;;;;;23.17;13.35;;;;;;;0.14;100.00;102523.22;4960507;28;20071;-82
2023/04/05 05:29:23;;;;;;;24.08;13.98;;;;;;;0.18;100.00;102518.34;4954451;28;20039;-82
2023/04/05 05:31:50;;;;;;;22.83;13.60;;;;;;;0.24;100.00;102525.69;4965084;28;20074;-81
2023/04/05 05:34:18;;;;;;;21.92;12.70;;;;;;;0.29;100.00;102519.13;4928526;28;20050;-81
2023/04/05 05:36:51;;;;;;;23.92;13.18;;;;;;;0.35;100.00;102519.56;4964741;28;20055;-82
2023/04/05 05:39:20;;;;;;;25.27;13.38;;;;;;;0.40;100.00;102519.91;4955988;28;20057;-81
2023/04/05 05:41:48;;;;;;;23.42;13.18;;;;;;;0.46;100.00;102522.03;4954425;28;20502;-80
2023/04/05 05:44:15;;;;;;;25.02;13.00;;;;;;;0.51;100.00;102515.47;4948478;28;20058;-80
2023/04/05 05:46:43;;;;;;;20.52;12.65;;;;;;;0.57;100.00;102523.72;4943737;29;20059;-80
2023/04/05 05:49:10;;;;;;;24.45;12.90;;;;;;;0.61;100.00;102522.22;4950206;29;20061;-80
2023/04/05 05:51:38;;;;;;;23.23;13.70;;;;;;;0.67;100.00;102518.34;4947433;28;20061;-81
2023/04/05 05:54:05;;;;;;;30.20;13.57;;;;;;;0.74;100.00;102518.00;4935951;28;20051;-80
2023/04/05 05:56:32;;;;;;;24.30;13.88;;;;;;;0.80;100.00;102514.03;4958170;28;20059;-80
2023/04/05 05:59:00;;;;;;;27.05;13.23;;;;;;;0.87;100.00;102524.94;4949835;28;20062;-81
2023/04/05 06:01:28;;;;;;;25.80;13.48;;;;;;;0.94;100.00;102523.66;4959318;28;20035;-82
2023/04/05 06:03:55;;;;;;;27.75;14.32;;;;;;;1.00;100.00;102512.81;4979037;28;20038;-82
2023/04/05 06:06:23;;;;;;;23.45;13.45;;;;;;;1.03;100.00;102503.53;4917487;28;20051;-82
2023/04/05 06:08:53;;;;;;;26.35;13.80;;;;;;;1.10;100.00;102510.94;4934262;28;20050;-81
2023/04/05 06:11:25;;;;;;;25.10;13.18;;;;;;;1.17;100.00;102507.97;4914391;28;20417;-82
2023/04/05 06:13:56;;;;;;;26.60;13.13;;;;;;;1.24;100.00;102511.00;4950115;28;20066;-80
2023/04/05 06:16:23;;;;;;;23.25;12.15;;;;;;;1.30;100.00;102507.09;4979115;28;20035;-81
2023/04/05 06:18:51;;;;;;;25.63;12.07;;;;;;;1.36;100.00;102504.94;4960173;28;20058;-82
2023/04/05 06:21:18;;;;;;;21.20;12.48;;;;;;;1.44;100.00;102504.53;4920764;28;20046;-80
2023/04/05 06:23:46;;;;;;;20.45;11.75;;;;;;;1.51;100.00;102509.31;4932945;28;20458;-80
2023/04/05 06:26:19;;;;;;;25.48;12.80;;;;;;;1.58;100.00;102511.53;4954362;28;20063;-80
2023/04/05 06:28:47;;;;;;;21.92;12.15;;;;;;;1.63;100.00;102499.75;4956155;28;20170;-80
2023/04/05 06:31:16;;;;;;;22.40;12.23;;;;;;;1.70;100.00;102501.06;4931721;28;20066;-80
2023/04/05 06:33:43;;;;;;;19.70;11.05;;;;;;;1.77;100.00;102503.25;4945347;28;20053;-80
2023/04/05 06:36:11;;;;;;;20.83;10.50;;;;;;;1.84;100.00;102497.66;4921895;28;20984;-80
2023/04/05 06:38:38;;;;;;;21.73;10.88;;;;;;;1.98;100.00;102511.56;4951901;28;20541;-80
2023/04/05 06:41:06;;;;;;;18.40;10.70;;;;;;;2.28;100.00;102501.31;4952754;28;20086;-80
2023/04/05 06:43:33;;;;;;;18.48;11.25;;;;;;;2.57;100.00;102500.56;4959327;28;20065;-79
2023/04/05 06:46:01;;;;;;;19.95;11.80;;;;;;;2.98;100.00;102511.72;4938860;28;20058;-80
2023/04/05 06:48:28;;;;;;;18.85;11.18;;;;;;;3.49;100.00;102505.19;4949047;28;20051;-79
2023/04/05 06:51:00;;;;;;;17.33;9.90;;;;;;;4.02;100.00;102496.94;4968373;28;20051;-80
2023/04/05 06:53:28;;;;;;;15.23;9.40;;;;;;;4.45;100.00;102495.84;4902387;28;20935;-80
2023/04/05 06:55:57;;;;;;;13.93;8.05;;;;;;;4.98;100.00;102495.19;4945271;28;20502;-80
2023/04/05 06:58:26;;;;;;;13.85;7.72;;;;;;;5.25;100.00;102492.19;4954920;28;20065;-80
2023/04/05 07:00:53;;;;;;;14.95;6.95;;;;;;;5.34;100.00;102497.91;4961032;28;20051;-80
2023/04/05 07:03:21;;;;;;;13.57;6.53;;;;;;;5.54;100.00;102498.91;4934001;28;20055;-80
2023/04/05 07:05:55;;;;;;;10.25;6.72;;;;;;;5.85;100.00;102489.97;4959751;28;20057;-81
2023/04/05 07:08:23;;;;;;;11.13;6.25;;;;;;;6.18;100.00;102490.75;4911214;28;20036;-80
2023/04/05 07:10:50;;;;;;;10.35;6.20;;;;;;;6.24;100.00;102492.75;4942381;28;20069;-81
2023/04/05 07:13:20;;;;;;;9.38;5.53;;;;;;;6.27;100.00;102494.59;4961515;28;20062;-79
2023/04/05 07:15:48;;;;;;;12.05;7.30;;;;;;;6.13;100.00;102494.84;4949689;28;20074;-79
2023/04/05 07:18:16;;;;;;;6.97;5.53;;;;;;;6.03;100.00;102493.50;4954440;28;20062;-78
2023/04/05 07:20:50;;;;;;;7.90;5.47;;;;;;;5.98;100.00;102486.25;4982215;28;20050;-79
2023/04/05 07:23:17;;;;;;;5.43;4.20;;;;;;;6.00;100.00;102497.69;4952698;28;20059;-79
2023/04/05 07:25:46;;;;;;;6.82;4.75;;;;;;;6.02;100.00;102496.94;4970048;28;20528;-78
2023/04/05 07:28:13;;;;;;;5.13;4.28;;;;;;;6.09;100.00;102486.75;4987234;28;20050;-80
2023/04/05 07:30:41;;;;;;;10.43;4.65;;;;;;;6.22;100.00;102489.16;4962422;29;20556;-78
2023/04/05 07:33:09;;;;;;;6.50;4.80;;;;;;;6.51;100.00;102481.75;4968577;28;20356;-78
2023/04/05 07:35:37;;;;;;;10.77;4.88;;;;;;;6.75;100.00;102488.13;4949807;28;20039;-79
2023/04/05 07:38:05;;;;;;;8.43;4.55;;;;;;;6.95;100.00;102483.75;4982190;28;20065;-79
2023/04/05 07:40:32;;;;;;;9.00;4.10;;;;;;;7.19;100.00;102490.91;4965105;28;20051;-79
2023/04/05 07:42:59;;;;;;;8.60;4.28;;;;;;;7.38;100.00;102487.34;4970262;28;20082;-80
2023/04/05 07:45:30;;;;;;;6.22;5.00;;;;;;;7.48;100.00;102494.75;4978621;28;20466;-79
2023/04/05 07:47:57;;;;;;;8.45;4.95;;;;;;;7.50;100.00;102492.22;4953083;28;20046;-78
2023/04/05 07:50:26;;;;;;;8.15;4.80;;;;;;;7.52;100.00;102490.53;4958148;28;20057;-79
2023/04/05 07:52:53;;;;;;;7.70;5.18;;;;;;;7.53;100.00;102494.97;4962170;28;20050;-79
2023/04/05 07:55:21;;;;;;;6.63;4.80;;;;;;;7.43;100.00;102480.59;4969610;28;20058;-78
2023/04/05 07:57:49;;;;;;;7.05;4.00;;;;;;;7.44;100.00;102486.72;4983020;28;20069;-79
2023/04/05 08:00:17;;;;;;;10.13;4.40;;;;;;;7.59;100.00;102492.59;4959511;28;20055;-77
2023/04/05 08:02:44;;;;;;;8.38;4.43;;;;;;;7.61;100.00;102486.56;4983964;28;20050;-79
2023/04/05 08:05:12;;;;;;;5.13;3.70;;;;;;;7.63;98.59;102489.25;4986072;28;20053;-80
2023/04/05 08:07:39;;;;;;;5.20;3.80;;;;;;;7.70;99.78;102480.81;4975122;28;20038;-80
2023/04/05 08:10:07;;;;;;;5.65;4.00;;;;;;;7.85;99.48;102485.81;4977731;28;20059;-78
2023/04/05 08:12:34;;;;;;;5.50;3.17;;;;;;;8.00;98.67;102486.41;4961986;28;20059;-79
2023/04/05 08:15:06;;;;;;;6.80;3.55;;;;;;;8.05;94.67;102489.22;4982523;28;20054;-79
2023/04/05 08:17:34;;;;;;;6.07;3.55;;;;;;;8.22;96.62;102492.50;5003577;28;20051;-78
2023/04/05 08:20:02;;;;;;;4.85;3.67;;;;;;;8.38;95.58;102488.75;4985903;28;20059;-78
2023/04/05 08:22:30;;;;;;;7.50;4.10;;;;;;;8.44;92.34;102488.13;4983329;28;20347;-78
2023/04/05 08:24:57;;;;;;;4.40;3.10;;;;;;;8.62;95.79;102490.53;4960099;28;20062;-79
2023/04/05 08:27:24;;;;;;;7.07;3.78;;;;;;;8.90;96.20;102484.56;4974305;28;20480;-78
2023/04/05 08:29:52;;;;;;;4.40;3.42;;;;;;;9.21;94.54;102478.69;4991757;28;20549;-79
2023/04/05 08:32:19;;;;;;;3.55;3.22;;;;;;;9.45;93.36;102480.34;4977593;28;20042;-79
2023/04/05 08:34:47;;;;;;;6.75;3.53;;;;;;;9.63;91.43;102472.19;4977962;28;20051;-80
2023/04/05 08:37:14;;;;;;;6.10;2.97;;;;;;;9.64;87.14;102480.16;4953054;28;20054;-79
2023/04/05 08:39:41;;;;;;;3.60;3.05;;;;;;;9.75;86.00;102476.13;4974757;28;20074;-79
2023/04/05 08:42:22;;;;;;;3.15;2.85;;;;;;;9.76;79.90;102480.53;4969863;28;20062;-78
2023/04/05 08:44:51;;;;;;;4.05;3.17;;;;;;;9.64;80.46;102480.16;4982819;28;20536;-78
2023/04/05 08:47:20;;;;;;;3.75;3.20;;;;;;;9.55;79.18;102480.72;4983398;28;20062;-78
2023/04/05 08:49:48;;;;;;;5.70;2.90;;;;;;;9.72;80.39;102475.13;4971418;28;20466;-78
2023/04/05 08:52:16;;;;;;;13.13;3.80;;;;;;;9.92;78.64;102467.84;4981593;28;20054;-78
2023/04/05 08:54:43;;;;;;;2.72;2.53;;;;;;;10.08;77.54;102464.88;5004413;28;20065;-78
2023/04/05 08:57:11;;;;;;;5.10;2.90;;;;;;;10.07;71.85;102468.34;4936920;28;20046;-78
2023/04/05 08:59:40;;;;;;;3.03;2.75;;;;;;;10.18;72.35;102465.16;4987180;28;20053;-78
2023/04/05 09:02:17;;;;;;;4.22;2.50;;;;;;;10.28;67.54;102472.47;4984208;28;20063;-79
2023/04/05 09:04:47;;;;;;;3.70;2.83;;;;;;;10.12;63.16;102472.00;4988159;28;20030;-78
2023/04/05 09:07:16;;;;;;;3.42;2.85;;;;;;;9.64;60.68;102474.88;4981582;28;20042;-79
2023/04/05 09:09:47;;;;;;;3.40;2.67;;;;;;;9.26;61.94;102482.38;4982208;28;20047;-78
2023/04/05 09:12:14;;;;;;;3.65;2.40;;;;;;;9.14;61.44;102480.19;4962615;28;20459;-78
2023/04/05 09:14:42;;;;;;;4.50;2.88;;;;;;;9.03;59.46;102470.13;4972683;28;20060;-80
2023/04/05 09:17:10;;;;;;;5.85;2.78;;;;;;;8.78;60.77;102466.63;4969319;28;20035;-78
2023/04/05 09:19:39;;;;;;;5.00;3.08;;;;;;;8.77;62.34;102468.38;4984480;28;20054;-80
2023/04/05 09:22:07;;;;;;;2.42;2.22;;;;;;;8.68;61.46;102475.03;4976105;28;20047;-77
2023/04/05 09:24:40;;;;;;;4.43;2.53;;;;;;;8.80;62.84;102471.94;4957061;28;20630;-77
2023/04/05 09:27:13;;;;;;;2.92;2.60;;;;;;;8.61;59.15;102470.38;4980720;28;20057;-78
2023/04/05 09:29:45;;;;;;;4.78;2.65;;;;;;;8.46;60.50;102468.94;4956765;28;20047;-78
2023/04/05 09:32:18;;;;;;;5.22;2.65;;;;;;;8.50;61.43;102470.84;4986454;28;20059;-78
2023/04/05 09:34:45;;;;;;;7.22;2.20;;;;;;;8.54;59.32;102458.72;4975420;28;20051;-78
2023/04/05 09:37:20;;;;;;;4.40;2.70;;;;;;;8.64;60.22;102453.00;4957237;28;20051;-78
2023/04/05 09:39:50;;;;;;;5.50;2.80;;;;;;;8.61;58.01;102460.75;4981266;28;20058;-78
2023/04/05 09:42:21;;;;;;;2.90;2.60;;;;;;;8.49;57.98;102455.94;4968759;28;20050;-78
2023/04/05 09:44:52;;;;;;;4.72;2.55;;;;;;;8.61;60.00;102457.22;4968586;28;20047;-79
2023/04/05 09:47:29;;;;;;;7.28;2.65;;;;;;;8.74;60.71;102456.84;4985821;28;20039;-78
2023/04/05 09:50:05;;;;;;;4.75;2.58;;;;;;;8.88;60.39;102457.34;4982023;28;20066;-78
2023/04/05 09:52:33;;;;;;;3.50;2.67;;;;;;;8.92;60.14;102453.97;4964333;28;20057;-78
2023/04/05 09:55:02;;;;;;;4.55;2.35;;;;;;;8.96;60.07;102448.91;4986287;28;20062;-77
2023/04/05 09:57:33;;;;;;;7.87;3.10;;;;;;;9.03;60.23;102454.34;4981036;28;20047;-78
2023/04/05 10:00:04;;;;;;;4.70;2.90;;;;;;;9.07;61.03;102445.72;4950479;28;20059;-78
2023/04/05 10:02:40;;;;;;;7.18;2.53;;;;;;;9.00;60.54;102449.91;4952825;29;20059;-78
2023/04/05 10:05:12;;;;;;;3.45;2.95;;;;;;;8.95;60.74;102444.47;4962860;28;20074;-78
2023/04/05 10:07:41;;;;;;;5.75;2.67;;;;;;;8.91;57.67;102445.19;4984484;28;20046;-78
2023/04/05 10:10:11;;;;;;;8.20;3.00;;;;;;;8.74;60.27;102438.44;4981606;28;20061;-78
2023/04/05 10:12:40;;;;;;;3.80;2.58;;;;;;;8.67;59.94;102444.31;4980695;28;20050;-78
2023/04/05 10:15:13;;;;;;;3.40;2.80;;;;;;;8.60;58.56;102443.22;4963809;28;20057;-80
2023/04/05 10:17:54;;;;;;;4.78;2.55;;;;;;;8.52;59.22;102431.50;4968307;28;20073;-80
2023/04/05 10:20:23;;;;;;;4.13;2.35;;;;;;;8.49;59.47;102436.66;4979504;28;20490;-79
2023/04/05 10:23:11;;;;;;;3.95;3.00;;;;;;;8.53;58.12;102439.44;4969326;28;20051;-80
2023/04/05 10:25:39;;;;;;;12.23;3.65;;;;;;;8.51;59.95;102432.34;4979333;28;20030;-81
2023/04/05 10:28:13;;;;;;;6.13;3.05;;;;;;;8.49;57.85;102429.66;4974608;28;20052;-78
2023/04/05 10:30:46;;;;;;;6.15;3.30;;;;;;;8.49;58.40;102437.56;4961135;28;20055;-78
2023/04/05 10:33:38;;;;;;;6.57;3.08;;;;;;;8.54;59.24;102438.63;4973580;28;20051;-79
2023/04/05 10:36:15;;;;;;;4.68;3.20;;;;;;;8.67;58.91;102437.31;4962006;28;20095;-79
2023/04/05 10:39:03;;;;;;;4.45;3.00;;;;;;;8.75;55.09;102434.97;4979418;28;20429;-79
2023/04/05 10:41:38;;;;;;;5.50;3.50;;;;;;;8.77;58.35;102435.91;4994837;28;20055;-78
2023/04/05 10:44:10;;;;;;;5.55;3.22;;;;;;;8.79;57.24;102423.75;4926502;28;20050;-77
2023/04/05 10:46:54;;;;;;;5.03;3.72;;;;;;;8.77;55.45;102423.69;4980484;28;20050;-80
2023/04/05 10:49:42;;;;;;;5.03;3.47;;;;;;;8.62;52.79;102427.47;4981757;28;20098;-80
2023/04/05 10:52:10;;;;;;;6.75;3.63;;;;;;;8.54;55.34;102417.59;4974457;28;20059;-80
2023/04/05 10:54:37;;;;;;;4.88;3.17;;;;;;;8.43;55.13;102412.78;4963415;28;20051;-79
2023/04/05 10:57:08;;;;;;;4.28;3.17;;;;;;;8.27;50.43;102417.41;4955165;28;20051;-78
2023/04/05 10:59:45;;;;;;;5.00;2.70;;;;;;;8.30;53.49;102404.41;4981298;28;20054;-79
2023/04/05 11:02:15;;;;;;;14.65;4.85;;;;;;;8.36;54.66;102406.38;4939422;28;20062;-80
2023/04/05 11:04:42;;;;;;;4.80;2.90;;;;;;;8.38;54.31;102412.56;4952318;28;20062;-80
2023/04/05 11:07:17;;;;;;;5.28;3.88;;;;;;;8.52;55.06;102406.13;4959940;28;20043;-78
2023/04/05 11:09:51;;;;;;;3.40;3.05;;;;;;;8.63;53.98;102397.75;4969272;28;20057;-81
2023/04/05 11:12:19;;;;;;;4.25;3.47;;;;;;;8.68;54.23;102391.81;4977281;28;20058;-80
2023/04/05 11:14:46;;;;;;;5.97;3.42;;;;;;;8.69;53.95;102400.59;4977911;28;20073;-77
2023/04/05 11:17:33;;;;;;;5.65;3.38;;;;;;;8.62;52.91;102394.22;4966490;28;20058;-79
2023/04/05 11:20:05;;;;;;;4.30;3.47;;;;;;;8.66;54.35;102395.19;4976743;28;20057;-79
2023/04/05 11:22:32;;;;;;;4.82;3.08;;;;;;;8.59;53.59;102389.75;4934470;28;20066;-77
2023/04/05 11:25:01;;;;;;;4.22;3.47;;;;;;;8.56;53.12;102391.34;4963412;28;20062;-77
2023/04/05 11:27:31;;;;;;;4.43;3.67;;;;;;;8.55;53.22;102403.59;4959559;28;20042;-77
2023/04/05 11:30:00;;;;;;;4.10;3.42;;;;;;;8.55;53.70;102398.34;4967864;28;20042;-78
2023/04/05 11:32:41;;;;;;;3.92;3.53;;;;;;;8.58;52.70;102387.03;4957182;28;20070;-78
2023/04/05 11:35:14;;;;;;;7.15;4.25;;;;;;;8.66;53.42;102384.69;4971709;28;20035;-80
2023/04/05 11:38:00;;;;;;;3.90;3.42;;;;;;;8.72;50.61;102384.94;4972693;28;20043;-80
2023/04/05 11:40:33;;;;;;;4.72;3.78;;;;;;;8.73;52.73;102376.19;4976291;28;20052;-79